sensor_id;sensor_type;location;lat;lon;timestamp;temperature;humidity
38941;DHT22;43236;47.208;7.518;2023-08-08T13:22:25;19.20;96.90
38941;DHT22;43236;47.208;7.518;2023-08-08T13:25:12;18.90;93.60
38941;DHT22;43236;47.208;7.518;2023-08-08T13:28:00;20.70;95.90
38941;DHT22;43236;47.208;7.518;2023-08-08T13:30:48;21.40;93.40
38941;DHT22;43236;47.208;7.518;2023-08-08T13:33:35;21.30;92.90
38941;DHT22;43236;47.208;7.518;2023-08-08T13:36:22;20.80;91.40
38941;DHT22;43236;47.208;7.518;2023-08-08T13:39:10;20.60;90.60
38941;DHT22;43236;47.208;7.518;2023-08-08T13:41:57;22.60;91.00
38941;DHT22;43236;47.208;7.518;2023-08-08T13:44:44;22.30;90.70
38941;DHT22;43236;47.208;7.518;2023-08-08T13:47:31;22.40;84.80
38941;DHT22;43236;47.208;7.518;2023-08-08T13:50:17;22.70;87.80
38941;DHT22;43236;47.208;7.518;2023-08-08T13:53:04;22.20;88.30
38941;DHT22;43236;47.208;7.518;2023-08-08T13:55:53;22.80;85.50
38941;DHT22;43236;47.208;7.518;2023-08-08T13:58:39;23.00;84.00
38941;DHT22;43236;47.208;7.518;2023-08-08T14:04:13;23.10;82.60
38941;DHT22;43236;47.208;7.518;2023-08-08T14:07:00;23.30;85.00
38941;DHT22;43236;47.208;7.518;2023-08-08T14:09:47;23.20;83.40
38941;DHT22;43236;47.208;7.518;2023-08-08T14:12:35;24.30;83.10
38941;DHT22;43236;47.208;7.518;2023-08-08T14:15:23;23.30;84.10
38941;DHT22;43236;47.208;7.518;2023-08-08T14:18:10;23.30;82.20
38941;DHT22;43236;47.208;7.518;2023-08-08T14:20:57;23.60;82.10
38941;DHT22;43236;47.208;7.518;2023-08-08T14:23:44;23.30;81.10
38941;DHT22;43236;47.208;7.518;2023-08-08T14:26:32;23.30;83.00
38941;DHT22;43236;47.208;7.518;2023-08-08T14:29:20;23.20;82.50
38941;DHT22;43236;47.208;7.518;2023-08-08T14:32:07;23.90;83.10
38941;DHT22;43236;47.208;7.518;2023-08-08T14:34:54;23.10;82.70
38941;DHT22;43236;47.208;7.518;2023-08-08T14:37:41;23.70;80.80
38941;DHT22;43236;47.208;7.518;2023-08-08T14:40:28;23.60;80.90
38941;DHT22;43236;47.208;7.518;2023-08-08T14:43:15;23.70;80.70
38941;DHT22;43236;47.208;7.518;2023-08-08T14:46:03;23.40;79.90
38941;DHT22;43236;47.208;7.518;2023-08-08T14:48:50;23.40;80.60
38941;DHT22;43236;47.208;7.518;2023-08-08T14:51:37;23.40;78.30
38941;DHT22;43236;47.208;7.518;2023-08-08T14:57:11;23.40;80.10
38941;DHT22;43236;47.208;7.518;2023-08-08T14:59:58;23.50;78.50
38941;DHT22;43236;47.208;7.518;2023-08-08T15:02:46;23.30;73.70
38941;DHT22;43236;47.208;7.518;2023-08-08T15:05:33;23.40;76.60
38941;DHT22;43236;47.208;7.518;2023-08-08T15:08:20;23.50;74.80
38941;DHT22;43236;47.208;7.518;2023-08-08T15:11:10;23.30;76.50
38941;DHT22;43236;47.208;7.518;2023-08-08T15:13:57;23.40;78.00
38941;DHT22;43236;47.208;7.518;2023-08-08T15:16:47;24.10;76.80
38941;DHT22;43236;47.208;7.518;2023-08-08T15:19:36;22.20;76.40
38941;DHT22;43236;47.208;7.518;2023-08-08T15:22:23;23.50;78.50
38941;DHT22;43236;47.208;7.518;2023-08-08T15:25:10;23.30;75.60
38941;DHT22;43236;47.208;7.518;2023-08-08T15:27:57;23.50;72.80
38941;DHT22;43236;47.208;7.518;2023-08-08T15:30:44;23.60;76.50
38941;DHT22;43236;47.208;7.518;2023-08-08T15:33:31;22.40;73.70
38941;DHT22;43236;47.208;7.518;2023-08-08T15:36:19;23.10;77.30
38941;DHT22;43236;47.208;7.518;2023-08-08T15:39:06;23.20;76.50
38941;DHT22;43236;47.208;7.518;2023-08-08T15:41:53;23.30;75.90
38941;DHT22;43236;47.208;7.518;2023-08-08T15:44:40;23.40;76.00
38941;DHT22;43236;47.208;7.518;2023-08-08T15:47:27;23.30;73.30
38941;DHT22;43236;47.208;7.518;2023-08-08T15:50:14;24.40;77.30
38941;DHT22;43236;47.208;7.518;2023-08-08T15:53:02;23.20;77.00
38941;DHT22;43236;47.208;7.518;2023-08-08T15:55:50;23.10;75.80
38941;DHT22;43236;47.208;7.518;2023-08-08T15:58:37;23.50;78.00
38941;DHT22;43236;47.208;7.518;2023-08-08T16:01:24;23.70;75.60
38941;DHT22;43236;47.208;7.518;2023-08-08T16:04:11;24.10;71.50
38941;DHT22;43236;47.208;7.518;2023-08-08T16:07:00;23.50;71.40
38941;DHT22;43236;47.208;7.518;2023-08-08T16:09:48;22.20;71.40
38941;DHT22;43236;47.208;7.518;2023-08-08T16:12:35;23.40;74.50
38941;DHT22;43236;47.208;7.518;2023-08-08T16:15:22;23.70;74.60
38941;DHT22;43236;47.208;7.518;2023-08-08T16:18:10;24.20;75.60
38941;DHT22;43236;47.208;7.518;2023-08-08T16:20:57;23.70;72.20
38941;DHT22;43236;47.208;7.518;2023-08-08T16:23:43;23.50;73.20
38941;DHT22;43236;47.208;7.518;2023-08-08T16:26:32;23.70;72.80
38941;DHT22;43236;47.208;7.518;2023-08-08T16:29:18;23.50;74.30
38941;DHT22;43236;47.208;7.518;2023-08-08T16:32:05;23.60;77.40
38941;DHT22;43236;47.208;7.518;2023-08-08T16:34:52;23.30;77.10
38941;DHT22;43236;47.208;7.518;2023-08-08T16:37:39;24.40;75.70
38941;DHT22;43236;47.208;7.518;2023-08-08T16:43:15;23.10;73.20
38941;DHT22;43236;47.208;7.518;2023-08-08T16:46:02;23.50;73.90
38941;DHT22;43236;47.208;7.518;2023-08-08T16:48:49;23.10;73.20
38941;DHT22;43236;47.208;7.518;2023-08-08T16:51:36;23.70;72.70
38941;DHT22;43236;47.208;7.518;2023-08-08T16:54:23;22.30;72.60
38941;DHT22;43236;47.208;7.518;2023-08-08T16:57:09;23.60;73.40
38941;DHT22;43236;47.208;7.518;2023-08-08T16:59:58;23.80;74.50
38941;DHT22;43236;47.208;7.518;2023-08-08T17:02:47;24.60;77.70
38941;DHT22;43236;47.208;7.518;2023-08-08T17:05:34;22.70;76.50
38941;DHT22;43236;47.208;7.518;2023-08-08T17:08:21;23.80;74.70
38941;DHT22;43236;47.208;7.518;2023-08-08T17:11:08;23.40;74.20
38941;DHT22;43236;47.208;7.518;2023-08-08T17:13:55;23.80;74.20
38941;DHT22;43236;47.208;7.518;2023-08-08T17:16:43;23.60;73.90
38941;DHT22;43236;47.208;7.518;2023-08-08T17:19:30;23.70;73.60
38941;DHT22;43236;47.208;7.518;2023-08-08T17:22:17;23.70;72.40
38941;DHT22;43236;47.208;7.518;2023-08-08T17:25:04;24.10;72.00
38941;DHT22;43236;47.208;7.518;2023-08-08T17:27:51;25.40;73.50
38941;DHT22;43236;47.208;7.518;2023-08-08T17:30:38;24.80;71.10
38941;DHT22;43236;47.208;7.518;2023-08-08T17:33:26;24.60;71.70
38941;DHT22;43236;47.208;7.518;2023-08-08T17:36:13;24.40;70.80
38941;DHT22;43236;47.208;7.518;2023-08-08T17:39:00;24.50;71.30
38941;DHT22;43236;47.208;7.518;2023-08-08T17:41:47;24.80;71.40
38941;DHT22;43236;47.208;7.518;2023-08-08T17:44:34;24.70;71.30
38941;DHT22;43236;47.208;7.518;2023-08-08T17:47:21;25.80;70.90
38941;DHT22;43236;47.208;7.518;2023-08-08T17:50:09;24.20;70.70
38941;DHT22;43236;47.208;7.518;2023-08-08T17:52:56;24.00;71.90
38941;DHT22;43236;47.208;7.518;2023-08-08T17:55:43;22.80;70.60
38941;DHT22;43236;47.208;7.518;2023-08-08T17:58:30;23.80;73.40
38941;DHT22;43236;47.208;7.518;2023-08-08T18:01:17;23.20;73.20
38941;DHT22;43236;47.208;7.518;2023-08-08T18:04:04;23.40;75.30
38941;DHT22;43236;47.208;7.518;2023-08-08T18:06:52;21.80;74.30
38941;DHT22;43236;47.208;7.518;2023-08-08T18:09:39;23.10;75.30
38941;DHT22;43236;47.208;7.518;2023-08-08T18:12:30;22.70;76.80
38941;DHT22;43236;47.208;7.518;2023-08-08T18:15:17;22.60;77.40
38941;DHT22;43236;47.208;7.518;2023-08-08T18:18:04;22.90;76.20
38941;DHT22;43236;47.208;7.518;2023-08-08T18:20:52;22.80;76.50
38941;DHT22;43236;47.208;7.518;2023-08-08T18:23:40;22.70;76.00
38941;DHT22;43236;47.208;7.518;2023-08-08T18:26:27;22.60;77.00
38941;DHT22;43236;47.208;7.518;2023-08-08T18:29:14;22.40;77.40
38941;DHT22;43236;47.208;7.518;2023-08-08T18:32:01;22.40;77.90
38941;DHT22;43236;47.208;7.518;2023-08-08T18:34:48;22.40;74.40
38941;DHT22;43236;47.208;7.518;2023-08-08T18:37:35;21.40;75.00
38941;DHT22;43236;47.208;7.518;2023-08-08T18:40:24;20.70;75.40
38941;DHT22;43236;47.208;7.518;2023-08-08T18:43:11;22.20;78.70
38941;DHT22;43236;47.208;7.518;2023-08-08T18:45:58;22.20;79.40
38941;DHT22;43236;47.208;7.518;2023-08-08T18:48:45;22.10;78.90
38941;DHT22;43236;47.208;7.518;2023-08-08T18:51:32;22.10;77.40
38941;DHT22;43236;47.208;7.518;2023-08-08T18:54:18;21.60;79.20
38941;DHT22;43236;47.208;7.518;2023-08-08T18:57:07;22.30;77.50
38941;DHT22;43236;47.208;7.518;2023-08-08T18:59:53;20.80;77.10
38941;DHT22;43236;47.208;7.518;2023-08-08T19:02:40;21.90;80.30
38941;DHT22;43236;47.208;7.518;2023-08-08T19:05:27;21.90;79.20
38941;DHT22;43236;47.208;7.518;2023-08-08T19:08:14;22.10;78.70
38941;DHT22;43236;47.208;7.518;2023-08-08T19:11:01;21.90;78.60
38941;DHT22;43236;47.208;7.518;2023-08-08T19:13:49;23.10;81.60
38941;DHT22;43236;47.208;7.518;2023-08-08T19:16:36;21.90;84.50
38941;DHT22;43236;47.208;7.518;2023-08-08T19:19:23;22.10;85.70
38941;DHT22;43236;47.208;7.518;2023-08-08T19:22:10;20.60;84.90
38941;DHT22;43236;47.208;7.518;2023-08-08T19:24:57;21.40;86.10
38941;DHT22;43236;47.208;7.518;2023-08-08T19:27:44;20.80;85.90
38941;DHT22;43236;47.208;7.518;2023-08-08T19:30:32;21.80;87.30
38941;DHT22;43236;47.208;7.518;2023-08-08T19:33:19;20.50;86.90
38941;DHT22;43236;47.208;7.518;2023-08-08T19:36:06;21.30;87.80
38941;DHT22;43236;47.208;7.518;2023-08-08T19:38:54;21.10;88.20
38941;DHT22;43236;47.208;7.518;2023-08-08T19:41:41;21.80;89.60
38941;DHT22;43236;47.208;7.518;2023-08-08T19:47:17;20.80;88.20
38941;DHT22;43236;47.208;7.518;2023-08-08T19:50:04;21.70;90.40
38941;DHT22;43236;47.208;7.518;2023-08-08T19:52:51;20.30;89.10
38941;DHT22;43236;47.208;7.518;2023-08-08T19:55:39;21.20;89.80
38941;DHT22;43236;47.208;7.518;2023-08-08T19:58:27;20.90;90.00
38941;DHT22;43236;47.208;7.518;2023-08-08T20:01:13;19.90;89.50
38941;DHT22;43236;47.208;7.518;2023-08-08T20:04:03;20.50;88.30
38941;DHT22;43236;47.208;7.518;2023-08-08T20:06:50;20.90;90.00
38941;DHT22;43236;47.208;7.518;2023-08-08T20:09:37;22.10;90.90
38941;DHT22;43236;47.208;7.518;2023-08-08T20:12:24;19.80;88.70
38941;DHT22;43236;47.208;7.518;2023-08-08T20:15:11;20.10;89.80
38941;DHT22;43236;47.208;7.518;2023-08-08T20:17:58;20.70;90.00
38941;DHT22;43236;47.208;7.518;2023-08-08T20:20:46;20.30;90.50
38941;DHT22;43236;47.208;7.518;2023-08-08T20:23:33;20.80;90.70
38941;DHT22;43236;47.208;7.518;2023-08-08T20:26:20;20.80;90.70
38941;DHT22;43236;47.208;7.518;2023-08-08T20:29:07;21.00;91.20
38941;DHT22;43236;47.208;7.518;2023-08-08T20:31:54;20.30;90.70
38941;DHT22;43236;47.208;7.518;2023-08-08T20:34:40;20.60;90.70
38941;DHT22;43236;47.208;7.518;2023-08-08T20:37:29;20.60;90.50
38941;DHT22;43236;47.208;7.518;2023-08-08T20:40:15;20.20;90.20
38941;DHT22;43236;47.208;7.518;2023-08-08T20:43:02;20.30;88.80
38941;DHT22;43236;47.208;7.518;2023-08-08T20:45:49;19.70;90.30
38941;DHT22;43236;47.208;7.518;2023-08-08T20:48:36;20.50;90.30
38941;DHT22;43236;47.208;7.518;2023-08-08T20:51:23;20.90;89.30
38941;DHT22;43236;47.208;7.518;2023-08-08T20:54:11;20.60;89.00
38941;DHT22;43236;47.208;7.518;2023-08-08T20:56:58;20.10;88.70
38941;DHT22;43236;47.208;7.518;2023-08-08T20:59:45;20.20;90.50
38941;DHT22;43236;47.208;7.518;2023-08-08T21:02:32;20.30;90.70
38941;DHT22;43236;47.208;7.518;2023-08-08T21:05:19;20.70;91.00
38941;DHT22;43236;47.208;7.518;2023-08-08T21:08:06;20.30;91.30
38941;DHT22;43236;47.208;7.518;2023-08-08T21:10:54;22.20;91.90
38941;DHT22;43236;47.208;7.518;2023-08-08T21:13:41;20.10;91.10
38941;DHT22;43236;47.208;7.518;2023-08-08T21:16:28;20.20;91.30
38941;DHT22;43236;47.208;7.518;2023-08-08T21:19:15;20.30;91.50
38941;DHT22;43236;47.208;7.518;2023-08-08T21:22:02;19.30;91.50
38941;DHT22;43236;47.208;7.518;2023-08-08T21:24:48;19.30;91.70
38941;DHT22;43236;47.208;7.518;2023-08-08T21:27:37;19.50;92.20
38941;DHT22;43236;47.208;7.518;2023-08-08T21:30:25;20.30;92.40
38941;DHT22;43236;47.208;7.518;2023-08-08T21:33:12;19.50;92.30
38941;DHT22;43236;47.208;7.518;2023-08-08T21:35:58;20.80;92.90
38941;DHT22;43236;47.208;7.518;2023-08-08T21:38:45;20.90;93.10
38941;DHT22;43236;47.208;7.518;2023-08-08T21:41:32;19.50;92.40
38941;DHT22;43236;47.208;7.518;2023-08-08T21:44:20;20.80;93.00
38941;DHT22;43236;47.208;7.518;2023-08-08T21:47:07;20.00;92.90
38941;DHT22;43236;47.208;7.518;2023-08-08T21:49:54;22.50;94.10
38941;DHT22;43236;47.208;7.518;2023-08-08T21:52:41;20.40;93.20
38941;DHT22;43236;47.208;7.518;2023-08-08T21:55:28;20.90;93.60
38941;DHT22;43236;47.208;7.518;2023-08-08T21:58:15;20.60;93.10
38941;DHT22;43236;47.208;7.518;2023-08-08T22:01:03;19.40;93.30
38941;DHT22;43236;47.208;7.518;2023-08-08T22:03:50;20.40;93.40
38941;DHT22;43236;47.208;7.518;2023-08-08T22:06:37;20.70;93.40
38941;DHT22;43236;47.208;7.518;2023-08-08T22:09:24;19.90;93.30
38941;DHT22;43236;47.208;7.518;2023-08-08T22:12:12;22.40;94.90
38941;DHT22;43236;47.208;7.518;2023-08-08T22:14:58;19.90;93.90
38941;DHT22;43236;47.208;7.518;2023-08-08T22:17:47;20.60;93.70
38941;DHT22;43236;47.208;7.518;2023-08-08T22:20:34;19.30;92.60
38941;DHT22;43236;47.208;7.518;2023-08-08T22:23:21;20.50;93.30
38941;DHT22;43236;47.208;7.518;2023-08-08T22:26:08;20.20;92.60
38941;DHT22;43236;47.208;7.518;2023-08-08T22:28:55;20.00;92.70
38941;DHT22;43236;47.208;7.518;2023-08-08T22:31:42;20.40;93.30
38941;DHT22;43236;47.208;7.518;2023-08-08T22:37:17;20.40;93.50
38941;DHT22;43236;47.208;7.518;2023-08-08T22:40:05;19.90;93.30
38941;DHT22;43236;47.208;7.518;2023-08-08T22:42:55;20.50;93.60
38941;DHT22;43236;47.208;7.518;2023-08-08T22:45:42;21.20;94.00
38941;DHT22;43236;47.208;7.518;2023-08-08T22:48:29;19.80;93.50
38941;DHT22;43236;47.208;7.518;2023-08-08T22:51:15;19.90;93.40
38941;DHT22;43236;47.208;7.518;2023-08-08T22:54:04;19.10;92.60
38941;DHT22;43236;47.208;7.518;2023-08-08T22:56:51;20.40;93.10
38941;DHT22;43236;47.208;7.518;2023-08-08T22:59:38;20.40;93.40
38941;DHT22;43236;47.208;7.518;2023-08-08T23:02:25;20.40;93.50
38941;DHT22;43236;47.208;7.518;2023-08-08T23:05:12;21.60;94.50
38941;DHT22;43236;47.208;7.518;2023-08-08T23:07:59;20.50;94.00
38941;DHT22;43236;47.208;7.518;2023-08-08T23:10:47;20.10;93.70
38941;DHT22;43236;47.208;7.518;2023-08-08T23:13:34;20.50;94.00
38941;DHT22;43236;47.208;7.518;2023-08-08T23:16:21;19.90;93.50
38941;DHT22;43236;47.208;7.518;2023-08-08T23:19:07;21.70;94.70
38941;DHT22;43236;47.208;7.518;2023-08-08T23:21:54;19.10;93.80
38941;DHT22;43236;47.208;7.518;2023-08-08T23:24:41;20.20;94.50
38941;DHT22;43236;47.208;7.518;2023-08-08T23:27:29;19.60;93.90
38941;DHT22;43236;47.208;7.518;2023-08-08T23:30:16;20.30;94.60
38941;DHT22;43236;47.208;7.518;2023-08-08T23:33:03;21.20;95.00
38941;DHT22;43236;47.208;7.518;2023-08-08T23:35:51;20.40;94.60
38941;DHT22;43236;47.208;7.518;2023-08-08T23:38:38;20.30;94.40
38941;DHT22;43236;47.208;7.518;2023-08-08T23:41:24;19.50;93.60
38941;DHT22;43236;47.208;7.518;2023-08-08T23:44:13;19.80;93.70
38941;DHT22;43236;47.208;7.518;2023-08-08T23:47:00;19.80;93.70
38941;DHT22;43236;47.208;7.518;2023-08-08T23:49:47;20.40;94.10
38941;DHT22;43236;47.208;7.518;2023-08-08T23:52:34;20.40;94.50
38941;DHT22;43236;47.208;7.518;2023-08-08T23:55:21;21.40;94.90
38941;DHT22;43236;47.208;7.518;2023-08-08T23:58:08;19.70;94.00
